sensor_id;sensor_type;location;lat;lon;timestamp;P1;durP1;ratioP1;P2;durP2;ratioP2
64351;SDS011;50680;52.626;-8.668;2023-05-07T00:01:57;12.73;;;3.53;;
64351;SDS011;50680;52.626;-8.668;2023-05-07T00:04:24;7.68;;;2.85;;
64351;SDS011;50680;52.626;-8.668;2023-05-07T00:06:51;6.82;;;2.40;;
64351;SDS011;50680;52.626;-8.668;2023-05-07T00:09:18;9.70;;;2.78;;
64351;SDS011;50680;52.626;-8.668;2023-05-07T00:11:44;7.97;;;2.75;;
64351;SDS011;50680;52.626;-8.668;2023-05-07T00:14:11;6.00;;;2.67;;
64351;SDS011;50680;52.626;-8.668;2023-05-07T00:16:38;8.00;;;2.45;;
64351;SDS011;50680;52.626;-8.668;2023-05-07T00:19:05;8.45;;;2.63;;
64351;SDS011;50680;52.626;-8.668;2023-05-07T00:21:32;8.57;;;2.80;;
64351;SDS011;50680;52.626;-8.668;2023-05-07T00:23:58;9.65;;;2.55;;
64351;SDS011;50680;52.626;-8.668;2023-05-07T00:26:25;6.60;;;2.60;;
64351;SDS011;50680;52.626;-8.668;2023-05-07T00:28:52;7.43;;;2.78;;
64351;SDS011;50680;52.626;-8.668;2023-05-07T00:31:19;10.45;;;2.78;;
64351;SDS011;50680;52.626;-8.668;2023-05-07T00:33:46;10.18;;;3.30;;
64351;SDS011;50680;52.626;-8.668;2023-05-07T00:36:13;7.90;;;2.40;;
64351;SDS011;50680;52.626;-8.668;2023-05-07T00:38:39;9.70;;;2.95;;
64351;SDS011;50680;52.626;-8.668;2023-05-07T00:41:06;6.40;;;2.97;;
64351;SDS011;50680;52.626;-8.668;2023-05-07T00:43:33;8.23;;;3.00;;
64351;SDS011;50680;52.626;-8.668;2023-05-07T00:46:00;8.35;;;3.22;;
64351;SDS011;50680;52.626;-8.668;2023-05-07T00:48:27;10.52;;;3.03;;
64351;SDS011;50680;52.626;-8.668;2023-05-07T00:50:54;10.23;;;3.25;;
64351;SDS011;50680;52.626;-8.668;2023-05-07T00:53:21;8.57;;;2.75;;
64351;SDS011;50680;52.626;-8.668;2023-05-07T00:55:48;9.02;;;2.83;;
64351;SDS011;50680;52.626;-8.668;2023-05-07T00:58:16;10.48;;;3.20;;
64351;SDS011;50680;52.626;-8.668;2023-05-07T01:00:43;7.70;;;3.55;;
64351;SDS011;50680;52.626;-8.668;2023-05-07T01:03:09;8.13;;;3.50;;
64351;SDS011;50680;52.626;-8.668;2023-05-07T01:05:37;14.10;;;3.03;;
64351;SDS011;50680;52.626;-8.668;2023-05-07T01:08:04;8.07;;;3.45;;
64351;SDS011;50680;52.626;-8.668;2023-05-07T01:10:31;6.40;;;2.78;;
64351;SDS011;50680;52.626;-8.668;2023-05-07T01:12:58;8.02;;;2.67;;
64351;SDS011;50680;52.626;-8.668;2023-05-07T01:15:26;10.77;;;2.78;;
64351;SDS011;50680;52.626;-8.668;2023-05-07T01:17:53;7.60;;;2.50;;
64351;SDS011;50680;52.626;-8.668;2023-05-07T01:20:22;6.50;;;2.38;;
64351;SDS011;50680;52.626;-8.668;2023-05-07T01:22:49;8.27;;;2.33;;
64351;SDS011;50680;52.626;-8.668;2023-05-07T01:25:16;7.55;;;2.28;;
64351;SDS011;50680;52.626;-8.668;2023-05-07T01:27:44;6.57;;;2.90;;
64351;SDS011;50680;52.626;-8.668;2023-05-07T01:30:11;7.95;;;2.63;;
64351;SDS011;50680;52.626;-8.668;2023-05-07T01:32:43;7.10;;;2.20;;
64351;SDS011;50680;52.626;-8.668;2023-05-07T01:35:11;6.90;;;2.22;;
64351;SDS011;50680;52.626;-8.668;2023-05-07T01:37:40;7.43;;;2.17;;
64351;SDS011;50680;52.626;-8.668;2023-05-07T01:40:07;5.40;;;2.40;;
64351;SDS011;50680;52.626;-8.668;2023-05-07T01:42:35;7.75;;;2.38;;
64351;SDS011;50680;52.626;-8.668;2023-05-07T01:45:02;10.07;;;2.40;;
64351;SDS011;50680;52.626;-8.668;2023-05-07T01:47:29;5.22;;;2.22;;
64351;SDS011;50680;52.626;-8.668;2023-05-07T01:49:57;8.02;;;2.55;;
64351;SDS011;50680;52.626;-8.668;2023-05-07T01:52:24;5.32;;;1.83;;
64351;SDS011;50680;52.626;-8.668;2023-05-07T01:54:51;5.38;;;2.15;;
64351;SDS011;50680;52.626;-8.668;2023-05-07T01:57:18;10.48;;;2.63;;
64351;SDS011;50680;52.626;-8.668;2023-05-07T01:59:45;7.30;;;2.65;;
64351;SDS011;50680;52.626;-8.668;2023-05-07T02:02:12;9.20;;;3.15;;
64351;SDS011;50680;52.626;-8.668;2023-05-07T02:04:39;7.60;;;2.60;;
64351;SDS011;50680;52.626;-8.668;2023-05-07T02:07:05;10.20;;;3.15;;
64351;SDS011;50680;52.626;-8.668;2023-05-07T02:09:32;14.70;;;2.40;;
64351;SDS011;50680;52.626;-8.668;2023-05-07T02:11:59;7.00;;;2.25;;
64351;SDS011;50680;52.626;-8.668;2023-05-07T02:14:26;12.02;;;2.60;;
64351;SDS011;50680;52.626;-8.668;2023-05-07T02:16:52;9.70;;;2.33;;
64351;SDS011;50680;52.626;-8.668;2023-05-07T02:19:19;6.30;;;2.30;;
64351;SDS011;50680;52.626;-8.668;2023-05-07T02:21:47;9.50;;;2.72;;
64351;SDS011;50680;52.626;-8.668;2023-05-07T02:24:14;10.32;;;2.95;;
64351;SDS011;50680;52.626;-8.668;2023-05-07T02:26:41;6.72;;;2.40;;
64351;SDS011;50680;52.626;-8.668;2023-05-07T02:29:08;5.82;;;2.28;;
64351;SDS011;50680;52.626;-8.668;2023-05-07T02:31:35;10.25;;;2.70;;
64351;SDS011;50680;52.626;-8.668;2023-05-07T02:34:01;5.93;;;2.50;;
64351;SDS011;50680;52.626;-8.668;2023-05-07T02:36:28;9.88;;;2.65;;
64351;SDS011;50680;52.626;-8.668;2023-05-07T02:38:55;10.20;;;3.08;;
64351;SDS011;50680;52.626;-8.668;2023-05-07T02:41:22;5.25;;;2.95;;
64351;SDS011;50680;52.626;-8.668;2023-05-07T02:43:49;9.15;;;3.03;;
64351;SDS011;50680;52.626;-8.668;2023-05-07T02:46:15;8.27;;;2.67;;
64351;SDS011;50680;52.626;-8.668;2023-05-07T02:48:42;10.35;;;3.35;;
64351;SDS011;50680;52.626;-8.668;2023-05-07T02:51:09;9.90;;;3.25;;
64351;SDS011;50680;52.626;-8.668;2023-05-07T02:53:36;11.05;;;3.35;;
64351;SDS011;50680;52.626;-8.668;2023-05-07T02:56:03;10.02;;;3.70;;
64351;SDS011;50680;52.626;-8.668;2023-05-07T02:58:30;7.78;;;3.75;;
64351;SDS011;50680;52.626;-8.668;2023-05-07T03:00:56;7.85;;;3.38;;
64351;SDS011;50680;52.626;-8.668;2023-05-07T03:03:23;9.80;;;3.53;;
64351;SDS011;50680;52.626;-8.668;2023-05-07T03:05:50;7.57;;;3.50;;
64351;SDS011;50680;52.626;-8.668;2023-05-07T03:08:17;12.20;;;3.55;;
64351;SDS011;50680;52.626;-8.668;2023-05-07T03:10:44;11.40;;;3.45;;
64351;SDS011;50680;52.626;-8.668;2023-05-07T03:13:11;9.35;;;3.58;;
64351;SDS011;50680;52.626;-8.668;2023-05-07T03:15:38;7.88;;;3.70;;
64351;SDS011;50680;52.626;-8.668;2023-05-07T03:18:05;12.10;;;3.75;;
64351;SDS011;50680;52.626;-8.668;2023-05-07T03:20:32;12.13;;;4.30;;
64351;SDS011;50680;52.626;-8.668;2023-05-07T03:22:58;9.70;;;3.97;;
64351;SDS011;50680;52.626;-8.668;2023-05-07T03:25:25;13.38;;;3.70;;
64351;SDS011;50680;52.626;-8.668;2023-05-07T03:27:53;14.40;;;4.85;;
64351;SDS011;50680;52.626;-8.668;2023-05-07T03:30:20;13.55;;;4.13;;
64351;SDS011;50680;52.626;-8.668;2023-05-07T03:32:47;10.43;;;3.88;;
64351;SDS011;50680;52.626;-8.668;2023-05-07T03:35:14;13.50;;;4.50;;
64351;SDS011;50680;52.626;-8.668;2023-05-07T03:37:42;9.82;;;4.35;;
64351;SDS011;50680;52.626;-8.668;2023-05-07T03:40:09;11.13;;;3.72;;
64351;SDS011;50680;52.626;-8.668;2023-05-07T03:42:37;8.20;;;3.05;;
64351;SDS011;50680;52.626;-8.668;2023-05-07T03:45:04;15.63;;;3.67;;
64351;SDS011;50680;52.626;-8.668;2023-05-07T03:47:31;11.60;;;3.40;;
64351;SDS011;50680;52.626;-8.668;2023-05-07T03:49:58;9.63;;;3.38;;
64351;SDS011;50680;52.626;-8.668;2023-05-07T03:52:25;9.48;;;3.47;;
64351;SDS011;50680;52.626;-8.668;2023-05-07T03:54:52;7.03;;;3.15;;
64351;SDS011;50680;52.626;-8.668;2023-05-07T03:57:20;9.75;;;3.55;;
64351;SDS011;50680;52.626;-8.668;2023-05-07T03:59:46;6.70;;;3.35;;
64351;SDS011;50680;52.626;-8.668;2023-05-07T04:02:13;13.15;;;3.50;;
64351;SDS011;50680;52.626;-8.668;2023-05-07T04:04:40;10.25;;;3.40;;
64351;SDS011;50680;52.626;-8.668;2023-05-07T04:07:07;6.75;;;3.20;;
64351;SDS011;50680;52.626;-8.668;2023-05-07T04:09:34;7.68;;;3.38;;
64351;SDS011;50680;52.626;-8.668;2023-05-07T04:12:01;8.10;;;3.30;;
64351;SDS011;50680;52.626;-8.668;2023-05-07T04:14:27;6.55;;;3.67;;
64351;SDS011;50680;52.626;-8.668;2023-05-07T04:16:54;9.05;;;3.35;;
64351;SDS011;50680;52.626;-8.668;2023-05-07T04:19:21;11.65;;;3.40;;
64351;SDS011;50680;52.626;-8.668;2023-05-07T04:21:48;11.98;;;2.78;;
64351;SDS011;50680;52.626;-8.668;2023-05-07T04:24:15;9.50;;;3.58;;
64351;SDS011;50680;52.626;-8.668;2023-05-07T04:26:42;12.63;;;3.47;;
64351;SDS011;50680;52.626;-8.668;2023-05-07T04:29:08;9.63;;;3.42;;
64351;SDS011;50680;52.626;-8.668;2023-05-07T04:31:35;10.43;;;3.05;;
64351;SDS011;50680;52.626;-8.668;2023-05-07T04:34:02;14.27;;;3.90;;
64351;SDS011;50680;52.626;-8.668;2023-05-07T04:36:29;10.82;;;3.45;;
64351;SDS011;50680;52.626;-8.668;2023-05-07T04:38:57;11.27;;;4.10;;
64351;SDS011;50680;52.626;-8.668;2023-05-07T04:41:23;8.25;;;3.40;;
64351;SDS011;50680;52.626;-8.668;2023-05-07T04:43:51;9.48;;;3.72;;
64351;SDS011;50680;52.626;-8.668;2023-05-07T04:46:18;11.35;;;4.25;;
64351;SDS011;50680;52.626;-8.668;2023-05-07T04:48:44;9.57;;;4.10;;
64351;SDS011;50680;52.626;-8.668;2023-05-07T04:51:11;11.30;;;4.03;;
64351;SDS011;50680;52.626;-8.668;2023-05-07T04:53:38;13.40;;;4.28;;
64351;SDS011;50680;52.626;-8.668;2023-05-07T04:56:05;8.82;;;3.53;;
64351;SDS011;50680;52.626;-8.668;2023-05-07T04:58:32;12.52;;;3.95;;
64351;SDS011;50680;52.626;-8.668;2023-05-07T05:00:59;12.07;;;4.05;;
64351;SDS011;50680;52.626;-8.668;2023-05-07T05:03:26;9.60;;;3.92;;
64351;SDS011;50680;52.626;-8.668;2023-05-07T05:05:53;11.30;;;3.78;;
64351;SDS011;50680;52.626;-8.668;2023-05-07T05:08:20;6.32;;;3.10;;
64351;SDS011;50680;52.626;-8.668;2023-05-07T05:10:47;10.25;;;3.22;;
64351;SDS011;50680;52.626;-8.668;2023-05-07T05:13:16;12.15;;;3.88;;
64351;SDS011;50680;52.626;-8.668;2023-05-07T05:15:43;7.55;;;3.00;;
64351;SDS011;50680;52.626;-8.668;2023-05-07T05:18:10;7.68;;;3.08;;
64351;SDS011;50680;52.626;-8.668;2023-05-07T05:20:36;6.43;;;2.80;;
64351;SDS011;50680;52.626;-8.668;2023-05-07T05:23:03;5.40;;;3.00;;
64351;SDS011;50680;52.626;-8.668;2023-05-07T05:25:30;9.48;;;2.80;;
64351;SDS011;50680;52.626;-8.668;2023-05-07T05:27:57;8.50;;;3.38;;
64351;SDS011;50680;52.626;-8.668;2023-05-07T05:30:24;8.15;;;2.60;;
64351;SDS011;50680;52.626;-8.668;2023-05-07T05:32:50;6.78;;;2.63;;
64351;SDS011;50680;52.626;-8.668;2023-05-07T05:35:17;10.18;;;3.63;;
64351;SDS011;50680;52.626;-8.668;2023-05-07T05:37:44;10.02;;;2.28;;
64351;SDS011;50680;52.626;-8.668;2023-05-07T05:40:11;4.82;;;1.90;;
64351;SDS011;50680;52.626;-8.668;2023-05-07T05:42:38;5.47;;;2.50;;
64351;SDS011;50680;52.626;-8.668;2023-05-07T05:45:06;8.40;;;2.40;;
64351;SDS011;50680;52.626;-8.668;2023-05-07T05:47:33;12.52;;;2.78;;
64351;SDS011;50680;52.626;-8.668;2023-05-07T05:50:00;7.32;;;2.33;;
64351;SDS011;50680;52.626;-8.668;2023-05-07T05:52:27;9.52;;;2.70;;
64351;SDS011;50680;52.626;-8.668;2023-05-07T05:54:54;8.82;;;2.72;;
64351;SDS011;50680;52.626;-8.668;2023-05-07T05:57:21;11.30;;;2.85;;
64351;SDS011;50680;52.626;-8.668;2023-05-07T05:59:48;7.95;;;2.47;;
64351;SDS011;50680;52.626;-8.668;2023-05-07T06:02:14;7.85;;;2.50;;
64351;SDS011;50680;52.626;-8.668;2023-05-07T06:04:41;5.30;;;1.95;;
64351;SDS011;50680;52.626;-8.668;2023-05-07T06:07:09;7.75;;;2.53;;
64351;SDS011;50680;52.626;-8.668;2023-05-07T06:09:36;4.53;;;2.20;;
64351;SDS011;50680;52.626;-8.668;2023-05-07T06:12:02;9.10;;;2.40;;
64351;SDS011;50680;52.626;-8.668;2023-05-07T06:14:29;8.23;;;2.17;;
64351;SDS011;50680;52.626;-8.668;2023-05-07T06:16:56;10.63;;;2.47;;
64351;SDS011;50680;52.626;-8.668;2023-05-07T06:19:23;7.53;;;3.10;;
64351;SDS011;50680;52.626;-8.668;2023-05-07T06:21:52;7.45;;;2.58;;
64351;SDS011;50680;52.626;-8.668;2023-05-07T06:24:19;5.43;;;2.60;;
64351;SDS011;50680;52.626;-8.668;2023-05-07T06:26:46;7.55;;;2.97;;
64351;SDS011;50680;52.626;-8.668;2023-05-07T06:29:13;8.60;;;3.13;;
64351;SDS011;50680;52.626;-8.668;2023-05-07T06:31:40;5.38;;;2.60;;
64351;SDS011;50680;52.626;-8.668;2023-05-07T06:34:07;6.55;;;2.92;;
64351;SDS011;50680;52.626;-8.668;2023-05-07T06:36:34;9.57;;;2.80;;
64351;SDS011;50680;52.626;-8.668;2023-05-07T06:39:01;5.53;;;2.72;;
